Time;durP1;ratioP1;P1;durP2;ratioP2;P2;SDS_P1;SDS_P2;PMS_P1;PMS_P2;Temp;Humidity;BMP_temperature;BMP_pressure;BME280_temperature;BME280_humidity;BME280_pressure;Samples;Min_cycle;Max_cycle;Signal;HPM_P1;HPM_P2
2023/09/01 00:01:17;;;;;;;24.80;14.30;;;;;;;23.01;66.13;98969.38;78282;1296;3029089;-62
2023/09/01 00:04:00;;;;;;;26.00;14.70;;;;;;;22.95;66.37;98970.91;78153;1298;3048957;-61
2023/09/01 00:06:26;;;;;;;28.50;14.30;;;;;;;22.90;66.22;98971.34;79745;1298;3012998;-61
2023/09/01 00:08:53;;;;;;;29.00;14.50;;;;;;;22.86;66.50;98965.63;79466;1298;3011642;-61
2023/09/01 00:11:20;;;;;;;25.30;13.90;;;;;;;22.80;66.59;98970.65;78364;1301;3028430;-63
2023/09/01 00:13:48;;;;;;;28.00;14.10;;;;;;;22.76;66.62;98972.90;79546;1295;3013465;-63
2023/09/01 00:16:14;;;;;;;26.60;13.90;;;;;;;22.73;66.51;98973.94;79654;1296;3011636;-63
2023/09/01 00:18:42;;;;;;;26.30;13.80;;;;;;;22.69;66.80;98971.48;78425;1295;3028056;-60
2023/09/01 00:21:09;;;;;;;27.20;14.30;;;;;;;22.67;66.67;98967.05;79499;1295;3013093;-63
2023/09/01 00:23:35;;;;;;;29.00;14.60;;;;;;;22.64;66.58;98972.13;79501;1298;3011621;-62
2023/09/01 00:26:03;;;;;;;27.30;15.00;;;;;;;22.61;66.63;98977.34;78340;1297;3028210;-61
2023/09/01 00:28:30;;;;;;;31.20;14.50;;;;;;;22.55;66.82;98979.11;79575;1296;3013394;-61
2023/09/01 00:30:57;;;;;;;30.00;14.80;;;;;;;22.53;66.57;98975.08;79527;1297;3011633;-61
2023/09/01 00:33:29;;;;;;;23.30;14.30;;;;;;;22.53;66.19;98975.45;78242;1295;3049432;-63
2023/09/01 00:35:58;;;;;;;30.50;14.70;;;;;;;22.47;66.57;98971.45;79338;1299;3013396;-60
2023/09/01 00:38:26;;;;;;;27.90;14.30;;;;;;;22.44;66.23;98975.20;78310;1297;3052188;-62
2023/09/01 00:40:53;;;;;;;31.50;14.80;;;;;;;22.42;66.36;98977.98;79468;1292;3013660;-61
2023/09/01 00:43:20;;;;;;;24.10;14.10;;;;;;;22.35;66.52;98969.48;79357;1295;3012199;-61
2023/09/01 00:45:47;;;;;;;31.60;15.70;;;;;;;22.32;66.58;98972.01;78497;1293;3027447;-60
2023/09/01 00:48:14;;;;;;;30.10;14.60;;;;;;;22.29;66.19;98972.09;79321;1294;3013047;-60
2023/09/01 00:50:41;;;;;;;27.10;14.90;;;;;;;22.28;66.56;98969.27;79316;1292;3011438;-60
2023/09/01 00:53:09;;;;;;;34.60;14.70;;;;;;;22.28;66.56;98973.70;78307;1296;3029184;-59
2023/09/01 00:55:35;;;;;;;28.50;13.60;;;;;;;22.29;66.37;98971.95;79527;1295;3019318;-60
2023/09/01 00:58:02;;;;;;;30.70;16.00;;;;;;;22.26;66.57;98972.65;79244;1299;3013248;-60
2023/09/01 01:00:32;;;;;;;34.40;15.90;;;;;;;22.19;66.85;98968.70;78318;1297;3028150;-61
2023/09/01 01:03:06;;;;;;;31.60;15.50;;;;;;;22.13;67.15;98970.40;79422;1295;3014693;-61
2023/09/01 01:05:43;;;;;;;30.50;15.00;;;;;;;22.11;66.97;98970.64;78126;1294;3052177;-61
2023/09/01 01:08:32;;;;;;;34.40;16.10;;;;;;;22.07;66.67;98972.22;78014;1301;3053446;-61
2023/09/01 01:11:09;;;;;;;25.00;14.30;;;;;;;22.03;66.77;98970.87;78188;1298;3069244;-62
2023/09/01 01:13:40;;;;;;;33.10;14.60;;;;;;;22.01;66.06;98970.05;78358;1298;3050830;-62
2023/09/01 01:16:06;;;;;;;30.40;15.50;;;;;;;21.99;65.96;98967.83;79486;1294;3012833;-61
2023/09/01 01:18:35;;;;;;;27.70;14.70;;;;;;;21.94;65.92;98970.30;78795;1295;3013065;-62
2023/09/01 01:21:06;;;;;;;33.20;14.70;;;;;;;21.92;65.83;98968.82;79386;1295;3013153;-60
2023/09/01 01:23:34;;;;;;;32.10;14.50;;;;;;;21.90;65.36;98969.86;78392;1295;3052176;-62
2023/09/01 01:26:01;;;;;;;28.40;13.90;;;;;;;21.88;65.06;98975.65;79296;1300;3012753;-62
2023/09/01 01:28:27;;;;;;;29.50;15.10;;;;;;;21.88;64.50;98981.05;79215;1301;3011678;-62
2023/09/01 01:30:55;;;;;;;31.60;14.90;;;;;;;21.86;64.75;98982.53;78307;1295;3028846;-62
2023/09/01 01:33:39;;;;;;;30.30;14.50;;;;;;;21.81;64.31;98986.94;79612;1295;3013753;-60
2023/09/01 01:36:20;;;;;;;29.80;13.80;;;;;;;21.77;64.48;98995.87;78297;1298;3050739;-61
2023/09/01 01:39:12;;;;;;;26.40;13.60;;;;;;;21.75;64.51;98995.00;78362;1294;3052132;-62
2023/09/01 01:41:55;;;;;;;26.70;14.80;;;;;;;21.76;64.40;98986.52;78222;1300;3052674;-59
2023/09/01 01:44:27;;;;;;;30.30;13.60;;;;;;;21.76;64.58;98983.40;78268;1298;3069758;-62
2023/09/01 01:46:53;;;;;;;28.60;13.60;;;;;;;21.75;64.40;98985.75;79561;1295;3011811;-60
2023/09/01 01:49:21;;;;;;;30.50;15.70;;;;;;;21.76;64.31;98984.73;78041;1299;3028389;-61
2023/09/01 01:51:48;;;;;;;29.00;14.10;;;;;;;21.77;64.76;98983.56;79584;1295;3011776;-60
2023/09/01 01:54:15;;;;;;;25.70;13.30;;;;;;;21.76;64.45;98978.98;79504;1295;3013547;-65
2023/09/01 01:56:43;;;;;;;26.30;14.70;;;;;;;21.79;64.26;98980.84;78443;1295;3028177;-60
2023/09/01 01:59:09;;;;;;;32.30;13.80;;;;;;;21.77;64.28;98985.96;79344;1300;3013370;-62
2023/09/01 02:01:36;;;;;;;28.10;13.50;;;;;;;21.76;64.57;98987.77;79310;1298;3012768;-62
2023/09/01 02:04:05;;;;;;;22.80;12.30;;;;;;;21.76;64.31;98989.65;78296;1297;3026473;-60
2023/09/01 02:06:32;;;;;;;29.50;14.00;;;;;;;21.75;64.29;98988.05;79578;1294;3012960;-61
2023/09/01 02:08:59;;;;;;;27.00;13.30;;;;;;;21.73;64.58;98985.19;79341;1295;3013476;-61
2023/09/01 02:11:27;;;;;;;21.10;12.50;;;;;;;21.72;64.34;98984.40;78293;1297;3052000;-61
2023/09/01 02:13:55;;;;;;;33.30;13.90;;;;;;;21.73;64.39;98982.92;79523;1298;3013095;-63
2023/09/01 02:16:24;;;;;;;22.70;13.60;;;;;;;21.73;64.03;98986.14;79586;1296;3011664;-62
2023/09/01 02:18:52;;;;;;;29.90;12.40;;;;;;;21.74;64.06;98986.96;78273;1298;3058043;-60
2023/09/01 02:21:22;;;;;;;25.30;13.00;;;;;;;21.70;64.15;98982.52;79319;1297;3020609;-62
2023/09/01 02:23:50;;;;;;;30.90;12.50;;;;;;;21.72;63.98;98985.20;78761;1300;3013945;-60
2023/09/01 02:26:20;;;;;;;23.50;11.90;;;;;;;21.70;63.89;98979.90;79461;1298;3013015;-61
2023/09/01 02:28:49;;;;;;;25.50;13.20;;;;;;;21.71;63.78;98981.93;79017;1298;3011780;-60
2023/09/01 02:31:16;;;;;;;25.00;13.00;;;;;;;21.70;63.57;98984.85;79682;1297;3013309;-61
2023/09/01 02:33:43;;;;;;;32.60;13.90;;;;;;;21.69;63.45;98987.29;79923;1293;3013279;-60
2023/09/01 02:36:28;;;;;;;28.30;12.70;;;;;;;21.70;63.35;98983.14;78308;1294;3057282;-61
2023/09/01 02:38:57;;;;;;;27.20;12.90;;;;;;;21.68;63.33;98982.26;78538;1297;3049882;-59
2023/09/01 02:41:24;;;;;;;25.90;12.30;;;;;;;21.69;62.90;98984.08;79717;1295;3013161;-63
2023/09/01 02:43:50;;;;;;;23.50;12.80;;;;;;;21.67;63.12;98982.70;79451;1295;3012044;-63
2023/09/01 02:46:20;;;;;;;31.10;13.40;;;;;;;21.69;63.12;98980.71;78255;1300;3051256;-62
2023/09/01 02:48:46;;;;;;;23.00;12.80;;;;;;;21.68;63.51;98979.54;79645;1294;3012596;-61
2023/09/01 02:51:13;;;;;;;27.30;14.10;;;;;;;21.67;63.94;98986.34;79567;1293;3011501;-61
2023/09/01 02:53:41;;;;;;;27.90;14.90;;;;;;;21.68;64.09;98988.54;78292;1298;3049364;-58
2023/09/01 02:56:07;;;;;;;28.10;14.80;;;;;;;21.66;64.12;98990.81;79578;1295;3012845;-61
2023/09/01 02:58:34;;;;;;;26.30;14.40;;;;;;;21.66;64.09;98996.93;79369;1293;3012930;-61
2023/09/01 03:01:09;;;;;;;28.50;14.00;;;;;;;21.65;64.40;98993.97;78098;1301;3026253;-61
2023/09/01 03:03:38;;;;;;;29.60;15.50;;;;;;;21.65;64.65;98997.73;79017;1300;3011580;-61
2023/09/01 03:06:05;;;;;;;31.30;14.60;;;;;;;21.65;65.46;99004.20;79404;1293;3013096;-62
2023/09/01 03:08:32;;;;;;;28.20;14.40;;;;;;;21.65;65.18;99001.45;79523;1292;3011703;-61
2023/09/01 03:11:00;;;;;;;26.20;14.40;;;;;;;21.63;65.30;99004.02;78460;1295;3049245;-60
2023/09/01 03:13:27;;;;;;;28.40;14.30;;;;;;;21.64;65.44;98999.41;79357;1298;3013401;-62
2023/09/01 03:15:54;;;;;;;27.00;14.80;;;;;;;21.66;65.75;99001.78;79575;1293;3011953;-61
2023/09/01 03:18:23;;;;;;;32.80;14.80;;;;;;;21.67;66.78;99003.21;78362;1298;3052013;-61
2023/09/01 03:20:50;;;;;;;21.20;10.50;;;;;;;21.73;68.46;99002.00;79390;1295;3013135;-60
2023/09/01 03:23:17;;;;;;;27.90;11.50;;;;;;;22.34;67.36;99002.96;79644;1298;3011747;-61
2023/09/01 03:25:55;;;;;;;21.20;11.70;;;;;;;22.95;65.13;98997.80;78365;1298;3049968;-61
2023/09/01 03:28:23;;;;;;;25.40;12.10;;;;;;;23.01;64.71;98994.85;78285;1298;3053727;-63
2023/09/01 03:30:50;;;;;;;22.80;12.00;;;;;;;23.03;64.18;98998.55;79552;1298;3013554;-62
2023/09/01 03:33:18;;;;;;;20.90;12.60;;;;;;;22.95;64.18;98997.44;79521;1298;3011932;-63
2023/09/01 03:35:45;;;;;;;26.20;13.40;;;;;;;22.81;64.37;99000.69;78286;1297;3028730;-60
2023/09/01 03:38:12;;;;;;;27.20;12.90;;;;;;;22.77;64.12;99002.41;79326;1295;3013177;-63
2023/09/01 03:40:39;;;;;;;27.80;12.60;;;;;;;22.68;64.53;99002.12;79314;1295;3011758;-61
2023/09/01 03:43:07;;;;;;;24.80;12.90;;;;;;;22.65;64.07;98994.95;78390;1295;3026754;-61
2023/09/01 03:45:34;;;;;;;27.50;11.80;;;;;;;22.66;63.72;98991.05;79607;1295;3013051;-60
2023/09/01 03:48:00;;;;;;;20.60;11.70;;;;;;;22.66;63.84;98990.10;79489;1298;3011791;-63
2023/09/01 03:50:28;;;;;;;23.60;12.50;;;;;;;22.65;64.10;98994.38;78274;1295;3025267;-63
2023/09/01 03:52:54;;;;;;;26.80;11.90;;;;;;;22.65;63.48;98998.45;79525;1297;3013193;-63
2023/09/01 03:55:21;;;;;;;19.50;10.60;;;;;;;22.66;63.32;99008.75;79605;1298;3013543;-62
2023/09/01 03:57:49;;;;;;;20.30;11.30;;;;;;;22.62;63.46;99010.59;78245;1298;3028676;-61
2023/09/01 04:00:16;;;;;;;23.50;11.60;;;;;;;22.59;63.69;99012.39;79444;1301;3013237;-62
2023/09/01 04:02:43;;;;;;;24.60;11.60;;;;;;;22.54;63.71;99008.73;79741;1298;3011643;-63
2023/09/01 04:05:11;;;;;;;16.60;10.70;;;;;;;22.49;63.27;99006.94;78146;1296;3028221;-61
2023/09/01 04:07:37;;;;;;;21.30;9.70;;;;;;;22.47;62.38;99008.30;79525;1295;3020591;-62
2023/09/01 04:10:05;;;;;;;29.80;10.70;;;;;;;22.50;62.19;99007.60;79581;1295;3013211;-60
2023/09/01 04:12:34;;;;;;;21.30;10.70;;;;;;;22.55;61.83;99001.39;78254;1296;3052755;-63
2023/09/01 04:15:00;;;;;;;21.30;9.80;;;;;;;22.56;61.57;98996.46;79731;1298;3013417;-62
2023/09/01 04:17:29;;;;;;;19.40;10.60;;;;;;;22.59;61.55;98999.51;79754;1297;3012868;-63
2023/09/01 04:19:57;;;;;;;21.90;9.80;;;;;;;22.62;61.91;98996.30;78813;1295;3068752;-61
2023/09/01 04:22:24;;;;;;;23.70;9.40;;;;;;;22.68;61.22;98996.35;79691;1293;3013682;-61
2023/09/01 04:24:51;;;;;;;19.50;10.60;;;;;;;22.72;61.12;98996.17;79619;1293;3013385;-63
2023/09/01 04:27:20;;;;;;;27.10;9.80;;;;;;;22.68;60.77;98991.45;78524;1295;3053699;-60
2023/09/01 04:29:46;;;;;;;25.10;9.40;;;;;;;22.74;60.20;98991.50;79513;1297;3013631;-61
2023/09/01 04:32:13;;;;;;;20.10;10.20;;;;;;;22.77;59.47;98992.02;79555;1301;3011845;-61
2023/09/01 04:34:41;;;;;;;23.90;10.00;;;;;;;22.82;59.60;98993.29;78513;1297;3029615;-63
2023/09/01 04:37:08;;;;;;;21.10;10.20;;;;;;;22.88;59.39;98993.79;79275;1292;3013723;-61
2023/09/01 04:39:34;;;;;;;23.80;10.60;;;;;;;22.91;59.95;98992.11;79527;1295;3012997;-62
2023/09/01 04:42:02;;;;;;;26.30;10.10;;;;;;;22.96;60.07;98990.53;78360;1296;3052413;-62
2023/09/01 04:44:29;;;;;;;20.80;10.50;;;;;;;22.97;59.42;98985.52;79360;1301;3015776;-62
2023/09/01 04:46:56;;;;;;;27.20;11.70;;;;;;;22.96;59.47;98987.25;79668;1297;3013416;-62
2023/09/01 04:49:24;;;;;;;26.90;10.80;;;;;;;22.93;59.80;98986.50;78425;1298;3068475;-62
2023/09/01 04:51:50;;;;;;;27.30;10.60;;;;;;;22.92;59.64;98982.95;79467;1295;3013287;-64
2023/09/01 04:54:18;;;;;;;22.50;11.00;;;;;;;22.88;59.25;98980.73;79548;1295;3012988;-61
2023/09/01 04:56:48;;;;;;;20.90;11.80;;;;;;;22.88;59.50;98982.01;78308;1293;3052416;-62
2023/09/01 04:59:15;;;;;;;21.90;11.20;;;;;;;22.93;59.92;98986.78;79497;1301;3013169;-62
2023/09/01 05:01:42;;;;;;;22.40;12.30;;;;;;;22.96;60.01;98984.80;79800;1295;3013212;-64
2023/09/01 05:04:10;;;;;;;29.10;12.70;;;;;;;22.97;59.86;98976.12;78155;1296;3069930;-60
2023/09/01 05:06:37;;;;;;;30.50;13.80;;;;;;;23.09;59.65;98970.91;79323;1296;3013365;-61
2023/09/01 05:09:03;;;;;;;35.50;13.50;;;;;;;23.18;59.24;98972.17;79463;1299;3013612;-62
2023/09/01 05:11:32;;;;;;;31.40;13.30;;;;;;;23.26;58.70;98978.75;78200;1301;3028051;-61
2023/09/01 05:13:59;;;;;;;35.20;15.30;;;;;;;23.33;59.05;98982.36;79793;1297;3013608;-62
2023/09/01 05:16:26;;;;;;;29.70;13.90;;;;;;;23.44;59.05;98980.30;79521;1295;3013672;-64
2023/09/01 05:18:54;;;;;;;33.80;14.50;;;;;;;23.47;59.44;98989.52;78229;1300;3068505;-61
2023/09/01 05:21:20;;;;;;;33.40;13.90;;;;;;;23.58;59.43;98982.54;79629;1295;3013332;-63
2023/09/01 05:23:47;;;;;;;34.90;14.70;;;;;;;23.66;59.58;98980.98;79433;1294;3011557;-62
2023/09/01 05:26:15;;;;;;;32.80;15.00;;;;;;;23.74;59.11;98985.70;78477;1298;3025523;-60
2023/09/01 05:28:41;;;;;;;29.90;15.30;;;;;;;23.76;58.90;98992.64;79284;1302;3019673;-62
2023/09/01 05:31:08;;;;;;;29.20;14.90;;;;;;;23.75;58.66;98991.17;79505;1298;3011453;-62
2023/09/01 05:33:42;;;;;;;32.20;14.70;;;;;;;23.73;58.83;98981.18;78394;1298;3068746;-62
2023/09/01 05:36:09;;;;;;;32.50;15.30;;;;;;;23.80;58.92;98981.70;79401;1296;3013162;-63
2023/09/01 05:38:35;;;;;;;36.90;15.00;;;;;;;23.84;59.22;98990.25;79631;1295;3011828;-63
2023/09/01 05:41:05;;;;;;;34.40;14.80;;;;;;;23.82;59.38;98999.21;78422;1296;3028458;-61
2023/09/01 05:43:32;;;;;;;39.60;14.90;;;;;;;23.87;58.95;98999.68;79559;1292;3013694;-63
2023/09/01 05:45:59;;;;;;;24.60;14.00;;;;;;;23.87;59.13;99005.50;79606;1297;3011585;-62
2023/09/01 05:48:28;;;;;;;32.30;15.00;;;;;;;23.86;58.84;99016.23;78430;1298;3068824;-62
2023/09/01 05:50:55;;;;;;;30.70;14.60;;;;;;;23.79;58.93;99025.14;79413;1295;3013450;-63
2023/09/01 05:53:22;;;;;;;34.30;14.60;;;;;;;23.80;58.92;99032.67;79541;1298;3012949;-62
2023/09/01 05:55:50;;;;;;;30.90;13.30;;;;;;;23.73;58.81;99034.78;78205;1296;3027671;-62
2023/09/01 05:58:16;;;;;;;29.70;13.90;;;;;;;23.73;58.89;99039.10;79459;1298;3013036;-62
2023/09/01 06:00:43;;;;;;;31.80;15.10;;;;;;;23.72;58.61;99036.20;79717;1298;3011617;-62
2023/09/01 06:03:11;;;;;;;41.50;15.10;;;;;;;23.69;58.61;99037.13;78445;1294;3028750;-61
2023/09/01 06:05:37;;;;;;;25.90;14.80;;;;;;;23.59;59.08;99031.52;79702;1295;3018787;-62
2023/09/01 06:08:05;;;;;;;45.20;16.00;;;;;;;23.61;59.31;99030.15;79403;1298;3013767;-62
2023/09/01 06:10:32;;;;;;;38.30;15.40;;;;;;;23.67;59.42;99029.09;78402;1295;3052906;-63
2023/09/01 06:12:59;;;;;;;36.20;15.50;;;;;;;23.75;59.12;99025.87;79563;1298;3019041;-63
2023/09/01 06:15:26;;;;;;;39.00;15.90;;;;;;;23.80;59.16;99025.16;79563;1298;3011836;-63
2023/09/01 06:17:53;;;;;;;40.10;17.20;;;;;;;23.85;59.16;99029.20;78240;1298;3026430;-62
2023/09/01 06:20:20;;;;;;;39.50;17.40;;;;;;;23.84;59.34;99029.23;79594;1295;3021269;-62
2023/09/01 06:22:47;;;;;;;44.80;17.70;;;;;;;23.85;59.31;99035.69;79463;1298;3011610;-63
2023/09/01 06:25:15;;;;;;;39.50;16.20;;;;;;;23.90;59.25;99045.99;78251;1295;3028494;-62
2023/09/01 06:27:41;;;;;;;86.50;18.90;;;;;;;23.89;59.65;99057.55;79507;1298;3013856;-61
2023/09/01 06:30:08;;;;;;;45.60;18.40;;;;;;;23.87;59.90;99066.58;79443;1298;3011740;-62
2023/09/01 06:32:36;;;;;;;40.20;16.80;;;;;;;23.87;59.88;99068.48;78185;1296;3028910;-62
2023/09/01 06:35:04;;;;;;;43.00;18.30;;;;;;;23.81;60.40;99066.05;79483;1295;3018766;-64
2023/09/01 06:37:30;;;;;;;46.00;18.20;;;;;;;23.78;60.15;99067.59;79543;1295;3012634;-63
2023/09/01 06:39:58;;;;;;;43.00;18.00;;;;;;;23.68;60.84;99073.86;78308;1295;3053711;-63
2023/09/01 06:42:25;;;;;;;40.20;16.50;;;;;;;23.69;61.23;99072.02;79668;1298;3013593;-63
2023/09/01 06:44:52;;;;;;;43.00;18.90;;;;;;;23.71;61.25;99078.48;79749;1297;3011810;-64
2023/09/01 06:47:19;;;;;;;40.80;19.20;;;;;;;23.66;62.25;99074.29;78194;1296;3029220;-62
2023/09/01 06:49:46;;;;;;;43.80;17.90;;;;;;;23.65;63.16;99068.38;79680;1298;3013398;-62
2023/09/01 06:52:13;;;;;;;48.10;18.30;;;;;;;23.76;62.79;99062.16;79710;1295;3013253;-61
2023/09/01 06:54:41;;;;;;;44.10;17.80;;;;;;;23.83;64.15;99064.89;78418;1295;3028482;-63
2023/09/01 06:57:07;;;;;;;45.80;17.80;;;;;;;23.88;64.26;99067.55;79400;1298;3013628;-64
2023/09/01 06:59:34;;;;;;;45.80;18.40;;;;;;;23.88;65.92;99056.95;79632;1298;3011855;-64
2023/09/01 07:02:02;;;;;;;39.20;13.90;;;;;;;23.97;66.27;99051.27;78186;1298;3026827;-62
2023/09/01 07:04:28;;;;;;;39.40;15.00;;;;;;;24.62;65.69;99046.02;79574;1294;3012803;-63
2023/09/01 07:06:55;;;;;;;36.90;14.70;;;;;;;25.37;63.77;99045.62;79553;1298;3013184;-62
2023/09/01 07:09:23;;;;;;;34.20;15.10;;;;;;;25.61;63.24;99037.99;78259;1296;3028776;-64
2023/09/01 07:11:49;;;;;;;46.60;17.40;;;;;;;25.72;62.94;99037.61;79644;1297;3018454;-63
2023/09/01 07:14:16;;;;;;;39.50;18.10;;;;;;;25.76;62.27;99038.41;79478;1298;3013200;-61
2023/09/01 07:16:44;;;;;;;38.10;18.60;;;;;;;25.81;61.85;99030.40;78336;1298;3028368;-63
2023/09/01 07:19:10;;;;;;;43.30;18.50;;;;;;;25.87;61.76;99026.27;79497;1298;3018554;-61
2023/09/01 07:21:37;;;;;;;41.00;17.50;;;;;;;25.96;61.59;99023.06;79448;1298;3011931;-62
2023/09/01 07:24:05;;;;;;;34.30;15.60;;;;;;;26.00;63.06;99020.39;78241;1296;3025298;-64
2023/09/01 07:26:32;;;;;;;28.70;16.40;;;;;;;25.94;64.62;99021.40;79597;1298;3014608;-62
2023/09/01 07:28:59;;;;;;;34.70;16.80;;;;;;;25.90;64.77;99027.08;79875;1297;3013714;-63
2023/09/01 07:31:26;;;;;;;38.10;16.60;;;;;;;25.91;64.36;99035.55;78561;1296;3069130;-62
2023/09/01 07:33:54;;;;;;;41.90;17.30;;;;;;;25.94;64.18;99034.40;79472;1298;3012981;-63
2023/09/01 07:36:21;;;;;;;40.60;17.20;;;;;;;26.01;63.19;99027.77;79469;1296;3012799;-62
2023/09/01 07:38:49;;;;;;;38.40;17.60;;;;;;;26.13;62.87;99016.12;78328;1298;3053671;-62
2023/09/01 07:41:15;;;;;;;35.30;17.80;;;;;;;26.29;62.67;99012.08;79444;1298;3013481;-59
2023/09/01 07:43:42;;;;;;;38.40;17.50;;;;;;;26.41;62.29;99005.08;79525;1298;3011624;-63
2023/09/01 07:46:10;;;;;;;38.40;17.00;;;;;;;26.49;62.04;98998.65;78297;1297;3024924;-64
2023/09/01 07:48:37;;;;;;;32.70;17.60;;;;;;;26.60;61.99;98998.39;79673;1296;3018707;-64
2023/09/01 07:51:03;;;;;;;29.90;16.00;;;;;;;26.70;61.86;99003.34;79539;1293;3011626;-64
2023/09/01 07:53:31;;;;;;;35.60;17.10;;;;;;;26.81;62.14;99011.58;78316;1295;3028228;-65
2023/09/01 07:55:58;;;;;;;40.70;14.60;;;;;;;26.89;63.17;99014.27;79495;1297;3013383;-65
2023/09/01 07:58:24;;;;;;;30.80;15.10;;;;;;;26.98;64.13;99014.27;79537;1298;3011969;-63
2023/09/01 08:00:52;;;;;;;33.90;14.20;;;;;;;27.04;64.20;99014.77;78406;1297;3028887;-65
2023/09/01 08:03:19;;;;;;;31.80;15.70;;;;;;;27.10;64.09;99011.21;79642;1296;3013209;-63
2023/09/01 08:05:45;;;;;;;29.90;12.00;;;;;;;27.17;64.62;99014.77;79660;1297;3011398;-64
2023/09/01 08:08:13;;;;;;;12.70;8.10;;;;;;;27.23;66.01;99012.21;78449;1296;3028624;-63
2023/09/01 08:10:40;;;;;;;14.10;8.90;;;;;;;27.93;64.69;99016.80;79615;1297;3011719;-64
2023/09/01 08:13:08;;;;;;;14.70;8.50;;;;;;;28.49;62.87;99017.91;79621;1298;3011795;-64
2023/09/01 08:15:36;;;;;;;24.80;9.60;;;;;;;28.61;61.87;99024.09;78447;1298;3069547;-65
2023/09/01 08:18:04;;;;;;;20.20;10.00;;;;;;;28.55;61.91;99026.18;79565;1295;3020668;-65
2023/09/01 08:20:31;;;;;;;17.80;10.30;;;;;;;28.49;61.83;99031.46;79622;1292;3011439;-65
2023/09/01 08:22:59;;;;;;;20.00;9.30;;;;;;;28.28;62.38;99032.47;78444;1297;3053146;-64
2023/09/01 08:25:25;;;;;;;24.90;10.20;;;;;;;28.13;62.61;99033.04;79713;1295;3013801;-64
2023/09/01 08:27:52;;;;;;;20.90;11.80;;;;;;;28.12;62.57;99032.91;79586;1298;3011707;-64
2023/09/01 08:30:20;;;;;;;31.20;12.50;;;;;;;28.10;62.57;99030.31;78410;1294;3028298;-65
2023/09/01 08:32:46;;;;;;;21.60;11.40;;;;;;;28.10;62.07;99035.91;79621;1294;3018747;-66
2023/09/01 08:35:13;;;;;;;21.70;11.60;;;;;;;28.13;61.77;99039.33;79654;1297;3012757;-64
2023/09/01 08:37:41;;;;;;;23.00;11.60;;;;;;;28.12;61.77;99043.84;78413;1298;3028795;-66
2023/09/01 08:40:09;;;;;;;18.60;10.30;;;;;;;28.08;61.75;99037.88;79606;1298;3013466;-64
2023/09/01 08:42:47;;;;;;;27.20;10.60;;;;;;;28.13;61.98;99037.42;79538;1298;3011647;-64
2023/09/01 08:45:16;;;;;;;23.50;10.60;;;;;;;28.16;61.53;99040.07;78346;1298;3069612;-70
2023/09/01 08:47:45;;;;;;;24.00;12.70;;;;;;;28.20;61.58;99042.11;79788;1298;3013162;-64
2023/09/01 08:50:14;;;;;;;19.60;11.60;;;;;;;28.25;61.32;99042.32;79200;1295;3011731;-64
2023/09/01 08:52:44;;;;;;;24.40;12.20;;;;;;;28.28;61.00;99043.81;79668;1298;3013285;-64
2023/09/01 08:55:13;;;;;;;23.60;11.40;;;;;;;28.29;61.19;99038.60;78391;1297;3050675;-65
2023/09/01 08:57:40;;;;;;;21.50;10.90;;;;;;;28.34;60.97;99035.03;80137;1298;3012815;-64
2023/09/01 09:00:10;;;;;;;26.40;11.90;;;;;;;28.37;61.01;99034.77;79478;1298;3013113;-64
2023/09/01 09:02:42;;;;;;;18.00;11.40;;;;;;;28.44;60.83;99031.34;78315;1295;3050498;-65
2023/09/01 09:05:09;;;;;;;25.50;11.80;;;;;;;28.63;60.38;99029.40;79675;1296;3011457;-63
2023/09/01 09:07:37;;;;;;;26.70;11.70;;;;;;;28.75;60.45;99028.06;78208;1298;3048782;-64
2023/09/01 09:10:04;;;;;;;25.40;12.20;;;;;;;28.82;59.81;99031.27;79522;1298;3013430;-65
2023/09/01 09:12:35;;;;;;;22.80;11.80;;;;;;;28.94;59.53;99027.46;79526;1295;3011626;-62
2023/09/01 09:15:04;;;;;;;17.50;9.50;;;;;;;29.01;58.79;99031.05;78511;1295;3052394;-65
2023/09/01 09:17:48;;;;;;;16.90;10.20;;;;;;;29.10;58.32;99026.04;79612;1296;3013314;-64
2023/09/01 09:20:17;;;;;;;21.60;10.90;;;;;;;29.16;58.77;99026.05;78280;1298;3057397;-64
2023/09/01 09:22:51;;;;;;;16.60;10.50;;;;;;;29.28;58.37;99019.48;79616;1298;3011609;-65
2023/09/01 09:25:33;;;;;;;24.50;10.70;;;;;;;29.44;57.56;99017.77;78298;1298;3053044;-64
2023/09/01 09:28:12;;;;;;;21.70;10.20;;;;;;;29.60;57.14;99009.52;78329;1298;3049809;-67
2023/09/01 09:30:50;;;;;;;17.10;9.30;;;;;;;29.84;56.62;99007.83;78393;1298;3053462;-62
2023/09/01 09:33:26;;;;;;;16.30;9.30;;;;;;;29.94;55.28;99008.45;78334;1308;3053247;-64
2023/09/01 09:35:54;;;;;;;17.80;9.30;;;;;;;29.97;55.64;99012.91;78492;1295;3068239;-67
2023/09/01 09:38:21;;;;;;;22.60;10.10;;;;;;;29.81;55.33;99009.83;79925;1295;3013590;-63
2023/09/01 09:40:58;;;;;;;21.50;9.80;;;;;;;29.79;55.52;99014.89;79616;1293;3011536;-65
2023/09/01 09:43:26;;;;;;;19.50;9.90;;;;;;;29.80;55.79;99011.95;78375;1306;3053274;-64
2023/09/01 09:45:53;;;;;;;21.80;9.10;;;;;;;29.68;55.96;99016.61;79806;1303;3013177;-66
2023/09/01 09:48:50;;;;;;;16.50;8.90;;;;;;;29.57;56.18;99020.14;80427;1298;3011631;31
2023/09/01 09:51:17;;;;;;;15.70;8.30;;;;;;;29.31;56.96;99033.58;77641;1309;3070147;-65
2023/09/01 09:53:44;;;;;;;15.50;8.20;;;;;;;29.27;57.14;99031.48;78440;1307;3013240;-63
2023/09/01 09:56:32;;;;;;;16.70;8.10;;;;;;;29.31;57.02;99035.98;78666;1311;3011974;-65
2023/09/01 09:59:05;;;;;;;17.50;8.60;;;;;;;29.18;57.56;99039.30;77617;1308;3052498;-64
2023/09/01 10:01:35;;;;;;;12.10;8.60;;;;;;;29.16;57.88;99037.50;78663;1308;3013150;-63
2023/09/01 10:04:07;;;;;;;21.10;8.90;;;;;;;29.18;57.80;99037.77;77494;1308;3052866;-66
2023/09/01 10:06:34;;;;;;;15.80;8.50;;;;;;;29.17;58.35;99037.66;78847;1306;3012947;-63
2023/09/01 10:09:04;;;;;;;17.40;9.30;;;;;;;29.15;58.43;99035.09;77379;1308;3025927;-64
2023/09/01 10:11:31;;;;;;;19.40;8.90;;;;;;;29.23;58.19;99031.76;78881;1306;3013161;-64
2023/09/01 10:13:58;;;;;;;11.40;7.50;;;;;;;29.36;57.58;99028.17;78473;1307;3011989;-63
2023/09/01 10:16:26;;;;;;;17.30;7.50;;;;;;;29.54;57.07;99022.88;77489;1311;3053318;-63
2023/09/01 10:18:53;;;;;;;13.70;8.00;;;;;;;29.69;57.21;99017.73;78635;1316;3016085;-64
2023/09/01 10:21:20;;;;;;;15.00;7.90;;;;;;;29.74;56.57;99012.21;78684;1305;3011407;-64
2023/09/01 10:23:48;;;;;;;10.60;7.50;;;;;;;29.84;56.40;99002.64;77436;1311;3067695;-63
2023/09/01 10:26:28;;;;;;;16.40;8.70;;;;;;;29.90;56.53;98995.14;78399;1312;3013672;-65
2023/09/01 10:29:01;;;;;;;13.70;8.90;;;;;;;29.87;56.54;98992.21;77712;1307;3050184;-65
2023/09/01 10:31:28;;;;;;;15.90;9.20;;;;;;;29.84;56.79;98986.73;78909;1307;3011977;-63
2023/09/01 10:34:22;;;;;;;15.00;9.20;;;;;;;29.76;57.00;98988.23;77396;1309;3026452;-63
2023/09/01 10:37:22;;;;;;;25.40;15.30;;;;;;;29.59;57.84;98994.43;77482;1309;3052808;-62
2023/09/01 10:39:50;;;;;;;35.40;22.90;;;;;;;28.90;61.21;98996.56;77624;1309;3054807;-63
2023/09/01 10:42:16;;;;;;;38.50;22.80;;;;;;;28.54;62.71;98983.50;78757;1305;3012880;-64
2023/09/01 10:44:43;;;;;;;36.70;21.80;;;;;;;28.38;63.34;98972.45;78502;1304;3011838;-64
2023/09/01 10:47:33;;;;;;;34.20;21.10;;;;;;;28.26;63.77;98962.88;77394;1309;3026915;-65
2023/09/01 10:50:02;;;;;;;41.20;22.30;;;;;;;28.22;64.14;98962.83;77412;1307;3053871;-65
2023/09/01 10:52:31;;;;;;;43.50;25.10;;;;;;;27.90;65.39;98963.42;78684;1309;3012744;-65
2023/09/01 10:54:59;;;;;;;51.80;31.40;;;;;;;27.59;66.47;98957.35;77513;1309;3026573;-65
2023/09/01 10:57:46;;;;;;;54.40;31.80;;;;;;;27.43;66.90;98950.34;78743;1309;3013471;-64
2023/09/01 11:00:31;;;;;;;53.50;30.10;;;;;;;27.34;67.14;98953.52;77625;1309;3051837;-65
2023/09/01 11:03:29;;;;;;;57.70;30.70;;;;;;;27.08;69.05;98958.25;77603;1309;3056490;-64
2023/09/01 11:05:58;;;;;;;39.70;23.60;;;;;;;26.62;71.42;98959.89;77544;1304;3048830;-65
2023/09/01 11:08:25;;;;;;;41.70;26.70;;;;;;;26.69;71.53;98962.73;78882;1306;3015026;-66
2023/09/01 11:10:55;;;;;;;53.40;27.20;;;;;;;26.40;73.07;98974.49;78735;1309;3011638;-65